createdAt,value
2019-03-30T00:00:01.266Z,85.90
2019-03-30T00:01:01.248Z,85.61
2019-03-30T00:02:01.238Z,85.42
2019-03-30T00:03:01.229Z,84.95
2019-03-30T00:04:01.226Z,84.56
2019-03-30T00:05:01.209Z,84.47
2019-03-30T00:06:01.197Z,84.47
2019-03-30T00:07:01.184Z,84.09
2019-03-30T00:08:01.177Z,84.00
2019-03-30T00:09:01.165Z,84.00
2019-03-30T00:10:01.154Z,83.81
2019-03-30T00:11:01.142Z,83.52
2019-03-30T00:12:01.131Z,83.52
2019-03-30T00:13:01.120Z,83.42
2019-03-30T00:14:01.115Z,84.00
2019-03-30T00:15:01.102Z,84.09
2019-03-30T00:16:01.089Z,84.09
2019-03-30T00:17:01.076Z,83.90
2019-03-30T00:18:01.067Z,83.90
2019-03-30T00:19:01.057Z,84.28
2019-03-30T00:20:01.046Z,84.47
2019-03-30T00:21:01.034Z,84.47
2019-03-30T00:22:01.024Z,84.76
2019-03-30T00:23:01.014Z,84.66
2019-03-30T00:24:01.001Z,85.04
2019-03-30T00:25:00.991Z,85.24
2019-03-30T00:26:00.983Z,85.33
2019-03-30T00:27:02.020Z,85.90
2019-03-30T00:28:00.959Z,85.76
2019-03-30T00:29:00.950Z,86.33
2019-03-30T00:30:00.943Z,86.33
2019-03-30T00:31:00.928Z,86.43
2019-03-30T00:32:00.920Z,85.76
2019-03-30T00:33:00.906Z,85.86
2019-03-30T00:34:00.908Z,85.76
2019-03-30T00:35:00.889Z,85.61
2019-03-30T00:36:00.877Z,85.66
2019-03-30T00:37:00.864Z,85.38
2019-03-30T00:38:00.855Z,85.95
2019-03-30T00:39:00.844Z,86.14
2019-03-30T00:40:00.842Z,85.76
2019-03-30T00:41:00.822Z,85.28
2019-03-30T00:42:00.813Z,85.57
2019-03-30T00:43:00.803Z,86.14
2019-03-30T00:44:00.788Z,86.05
2019-03-30T00:45:00.786Z,86.43
2019-03-30T00:46:00.768Z,86.24
2019-03-30T00:47:00.758Z,86.24
2019-03-30T00:48:00.746Z,86.52
2019-03-30T00:49:00.736Z,86.90
2019-03-30T00:50:00.725Z,86.99
2019-03-30T00:51:00.715Z,87.38
2019-03-30T00:52:00.704Z,86.99
2019-03-30T00:53:00.693Z,87.38
2019-03-30T00:54:00.683Z,87.38
2019-03-30T00:55:00.672Z,86.80
2019-03-30T00:56:00.661Z,86.52
2019-03-30T00:57:00.650Z,86.61
2019-03-30T00:58:00.641Z,86.24
2019-03-30T00:59:00.630Z,85.86
2019-03-30T01:00:01.785Z,86.43
2019-03-30T01:01:00.608Z,86.33
2019-03-30T01:02:00.600Z,86.14
2019-03-30T01:03:00.587Z,86.05
2019-03-30T01:04:00.576Z,86.14
2019-03-30T01:05:00.566Z,86.33
2019-03-30T01:06:00.557Z,86.24
2019-03-30T01:07:00.548Z,85.57
2019-03-30T01:08:00.533Z,85.38
2019-03-30T01:09:00.525Z,86.33
2019-03-30T01:10:00.513Z,85.76
2019-03-30T01:11:00.501Z,85.86
2019-03-30T01:12:00.489Z,86.05
2019-03-30T01:13:00.480Z,86.14
2019-03-30T01:14:00.469Z,85.57
2019-03-30T01:15:00.459Z,85.66
2019-03-30T01:16:00.447Z,86.14
2019-03-30T01:17:00.437Z,86.33
2019-03-30T01:18:00.427Z,86.05
2019-03-30T01:19:00.418Z,86.14
2019-03-30T01:20:03.190Z,86.14
2019-03-30T01:21:00.393Z,86.14
2019-03-30T01:22:00.383Z,86.43
2019-03-30T01:23:00.374Z,86.43
2019-03-30T01:24:00.362Z,86.52
2019-03-30T01:25:00.402Z,86.33
2019-03-30T01:26:00.340Z,86.99
2019-03-30T01:27:00.883Z,87.38
2019-03-30T01:28:00.318Z,87.28
2019-03-30T01:29:00.306Z,87.47
2019-03-30T01:30:00.296Z,87.66
2019-03-30T01:31:00.287Z,87.57
2019-03-30T01:32:00.275Z,87.81
2019-03-30T01:33:00.265Z,87.19
2019-03-30T01:34:00.253Z,87.81
2019-03-30T01:35:00.350Z,87.90
2019-03-30T01:36:00.235Z,88.47
2019-03-30T01:37:00.221Z,88.57
2019-03-30T01:38:00.260Z,88.38
2019-03-30T01:39:00.254Z,87.71
2019-03-30T01:40:00.316Z,87.71
2019-03-30T01:41:00.287Z,87.90
2019-03-30T01:42:00.166Z,88.19
2019-03-30T01:43:00.256Z,88.67
2019-03-30T01:44:00.195Z,87.62
2019-03-30T01:45:00.252Z,87.76
2019-03-30T01:46:01.875Z,87.90
2019-03-30T01:47:00.113Z,88.00
2019-03-30T01:48:00.106Z,88.00
2019-03-30T01:49:00.094Z,88.57
2019-03-30T01:50:00.363Z,88.67
2019-03-30T01:51:00.070Z,88.57
2019-03-30T01:52:00.066Z,89.23
2019-03-30T01:53:00.055Z,88.57
2019-03-30T01:54:00.055Z,88.95
2019-03-30T01:55:00.027Z,88.85
2019-03-30T01:56:00.015Z,88.67
2019-03-30T01:57:00.004Z,88.76
2019-03-30T01:57:59.994Z,88.28
2019-03-30T01:58:59.983Z,88.09
2019-03-30T01:59:59.971Z,88.19
2019-03-30T02:00:59.960Z,88.57
2019-03-30T02:01:59.950Z,87.90
2019-03-30T02:02:59.941Z,87.90
2019-03-30T02:03:59.927Z,87.52
2019-03-30T02:04:59.916Z,87.14
2019-03-30T02:05:59.906Z,86.67
2019-03-30T02:06:59.896Z,87.43
2019-03-30T02:07:59.884Z,87.05
2019-03-30T02:08:59.874Z,86.76
2019-03-30T02:09:59.862Z,87.47
2019-03-30T02:10:59.852Z,87.28
2019-03-30T02:11:59.840Z,86.71
2019-03-30T02:12:59.830Z,86.95
2019-03-30T02:13:59.819Z,86.67
2019-03-30T02:14:59.811Z,86.80
2019-03-30T02:15:59.797Z,86.95
2019-03-30T02:16:59.786Z,86.95
2019-03-30T02:17:59.776Z,87.52
2019-03-30T02:18:59.765Z,87.62
2019-03-30T02:19:59.753Z,87.81
2019-03-30T02:20:59.745Z,88.00
2019-03-30T02:21:59.734Z,88.47
2019-03-30T02:22:59.722Z,88.19
2019-03-30T02:23:59.710Z,88.57
2019-03-30T02:24:59.701Z,87.71
2019-03-30T02:25:59.689Z,87.71
2019-03-30T02:26:59.678Z,88.76
2019-03-30T02:27:59.670Z,88.38
2019-03-30T02:28:59.660Z,88.19
2019-03-30T02:29:59.647Z,88.95
2019-03-30T02:30:59.636Z,88.67
2019-03-30T02:31:59.625Z,88.85
2019-03-30T02:32:59.618Z,88.85
2019-03-30T02:33:59.613Z,88.38
2019-03-30T02:34:59.592Z,88.57
2019-03-30T02:35:59.582Z,88.47
2019-03-30T02:36:59.571Z,88.67
2019-03-30T02:37:59.560Z,87.90
2019-03-30T02:38:59.559Z,87.90
2019-03-30T02:39:59.542Z,87.81
2019-03-30T02:40:59.528Z,88.76
2019-03-30T02:41:59.520Z,88.38
2019-03-30T02:42:59.510Z,88.57
2019-03-30T02:43:59.496Z,88.57
2019-03-30T02:44:59.484Z,88.57
2019-03-30T02:45:59.477Z,89.14
2019-03-30T02:46:59.467Z,88.28
2019-03-30T02:47:59.453Z,88.38
2019-03-30T02:48:59.443Z,88.28
2019-03-30T02:49:59.444Z,88.28
2019-03-30T02:50:59.422Z,88.38
2019-03-30T02:51:59.409Z,88.57
2019-03-30T02:52:59.399Z,88.76
2019-03-30T02:53:59.391Z,88.95
2019-03-30T02:54:59.380Z,89.42
2019-03-30T02:55:59.367Z,89.42
2019-03-30T02:56:59.357Z,90.09
2019-03-30T02:57:59.350Z,89.90
2019-03-30T02:58:59.338Z,90.09
2019-03-30T02:59:59.323Z,90.00
2019-03-30T03:00:59.324Z,90.19
2019-03-30T03:01:59.302Z,90.47
2019-03-30T03:02:59.291Z,90.28
2019-03-30T03:03:59.280Z,90.37
2019-03-30T03:04:59.272Z,90.56
2019-03-30T03:05:59.263Z,91.04
2019-03-30T03:06:59.249Z,90.37
2019-03-30T03:07:59.237Z,90.28
2019-03-30T03:08:59.232Z,90.61
2019-03-30T03:09:59.242Z,91.33
2019-03-30T03:10:59.215Z,90.99
2019-03-30T03:11:59.193Z,91.19
2019-03-30T03:12:59.184Z,91.38
2019-03-30T03:13:59.173Z,91.56
2019-03-30T03:14:59.162Z,92.04
2019-03-30T03:15:59.152Z,92.04
2019-03-30T03:16:59.139Z,92.42
2019-03-30T03:17:59.129Z,92.51
2019-03-30T03:18:59.147Z,92.99
2019-03-30T03:19:59.108Z,92.99
2019-03-30T03:21:07.446Z,92.80
2019-03-30T03:21:59.088Z,93.08
2019-03-30T03:22:59.075Z,93.18
2019-03-30T03:23:59.064Z,93.18
2019-03-30T03:24:59.061Z,93.27
2019-03-30T03:25:59.057Z,93.27
2019-03-30T03:26:59.031Z,93.56
2019-03-30T03:27:59.029Z,93.18
2019-03-30T03:28:59.009Z,94.13
2019-03-30T03:29:59.001Z,93.94
2019-03-30T03:30:58.991Z,93.84
2019-03-30T03:31:58.978Z,94.32
2019-03-30T03:32:58.967Z,94.51
2019-03-30T03:33:58.999Z,94.32
2019-03-30T03:34:58.964Z,94.79
2019-03-30T03:35:58.997Z,94.51
2019-03-30T03:36:58.922Z,94.70
2019-03-30T03:37:58.912Z,94.60
2019-03-30T03:38:58.901Z,94.79
2019-03-30T03:39:58.890Z,95.12
2019-03-30T03:40:58.881Z,94.89
2019-03-30T03:41:58.869Z,94.79
2019-03-30T03:42:58.858Z,94.89
2019-03-30T03:43:58.846Z,94.32
2019-03-30T03:44:58.834Z,94.13
2019-03-30T03:45:58.825Z,94.23
2019-03-30T03:46:58.813Z,94.13
2019-03-30T03:47:58.802Z,94.23
2019-03-30T03:48:58.791Z,93.46
2019-03-30T03:49:58.797Z,93.46
2019-03-30T03:50:58.911Z,92.51
2019-03-30T03:51:58.770Z,92.51
2019-03-30T03:52:58.749Z,92.13
2019-03-30T03:53:58.737Z,91.85
2019-03-30T03:54:58.734Z,91.94
2019-03-30T03:55:58.713Z,91.23
2019-03-30T03:56:58.705Z,89.90
2019-03-30T03:57:58.692Z,90.37
2019-03-30T03:58:58.681Z,90.09
2019-03-30T03:59:58.671Z,89.80
2019-03-30T04:00:58.659Z,89.42
2019-03-30T04:01:58.649Z,89.61
2019-03-30T04:02:58.638Z,89.33
2019-03-30T04:03:58.646Z,90.28
2019-03-30T04:04:58.624Z,89.71
2019-03-30T04:05:58.605Z,90.09
2019-03-30T04:06:58.594Z,90.19
2019-03-30T04:07:58.581Z,90.75
2019-03-30T04:08:58.574Z,90.33
2019-03-30T04:09:58.561Z,90.90
2019-03-30T04:10:58.548Z,91.47
2019-03-30T04:11:58.539Z,91.28
2019-03-30T04:12:58.527Z,92.04
2019-03-30T04:13:58.516Z,92.51
2019-03-30T04:14:58.510Z,92.51
2019-03-30T04:15:58.496Z,92.61
2019-03-30T04:16:58.488Z,93.46
2019-03-30T04:17:58.480Z,93.56
2019-03-30T04:18:58.462Z,93.75
2019-03-30T04:19:58.449Z,94.23
2019-03-30T04:20:58.439Z,93.94
2019-03-30T04:21:58.429Z,94.23
2019-03-30T04:22:58.430Z,94.23
2019-03-30T04:23:58.407Z,94.79
2019-03-30T04:24:58.395Z,94.46
2019-03-30T04:25:58.388Z,94.46
2019-03-30T04:26:58.373Z,94.74
2019-03-30T04:27:58.361Z,94.98
2019-03-30T04:28:58.356Z,95.22
2019-03-30T04:29:58.341Z,95.89
2019-03-30T04:30:58.330Z,95.70
2019-03-30T04:31:58.323Z,95.60
2019-03-30T04:32:58.311Z,95.51
2019-03-30T04:33:58.296Z,95.89
2019-03-30T04:34:58.343Z,95.89
2019-03-30T04:35:58.273Z,95.41
2019-03-30T04:36:58.262Z,96.36
2019-03-30T04:37:58.252Z,96.45
2019-03-30T04:38:58.244Z,96.64
2019-03-30T04:39:58.260Z,96.64
2019-03-30T04:40:58.220Z,97.12
2019-03-30T04:41:58.215Z,97.02
2019-03-30T04:42:58.195Z,97.22
2019-03-30T04:43:58.184Z,97.50
2019-03-30T04:44:58.172Z,97.78
2019-03-30T04:45:58.162Z,98.26
2019-03-30T04:46:58.151Z,98.64
2019-03-30T04:47:58.143Z,98.26
2019-03-30T04:48:58.138Z,98.26
2019-03-30T04:49:58.121Z,98.83
2019-03-30T04:50:58.106Z,98.07
2019-03-30T04:51:58.282Z,97.97
2019-03-30T04:52:58.083Z,97.60
2019-03-30T04:53:58.072Z,96.12
2019-03-30T04:54:58.070Z,96.12
2019-03-30T04:55:58.051Z,95.84
2019-03-30T04:56:58.039Z,95.46
2019-03-30T04:57:58.110Z,95.75
2019-03-30T04:58:58.018Z,95.08
2019-03-30T04:59:58.006Z,94.98
2019-03-30T05:00:57.993Z,95.17
2019-03-30T05:01:57.983Z,94.89
2019-03-30T05:02:57.972Z,94.89
2019-03-30T05:03:57.965Z,94.79
2019-03-30T05:04:57.949Z,94.51
2019-03-30T05:05:57.942Z,94.60
2019-03-30T05:06:57.926Z,94.51
2019-03-30T05:07:57.918Z,94.32
2019-03-30T05:08:57.905Z,93.84
2019-03-30T05:09:57.899Z,94.23
2019-03-30T05:10:57.882Z,93.65
2019-03-30T05:11:57.871Z,93.27
2019-03-30T05:12:57.859Z,94.13
2019-03-30T05:13:57.850Z,93.84
2019-03-30T05:14:57.839Z,94.37
2019-03-30T05:15:57.829Z,94.56
2019-03-30T05:16:57.818Z,94.84
2019-03-30T05:17:57.804Z,95.60
2019-03-30T05:18:57.793Z,95.51
2019-03-30T05:19:57.781Z,95.98
2019-03-30T05:20:57.770Z,96.08
2019-03-30T05:22:11.130Z,95.79
2019-03-30T05:22:57.749Z,96.64
2019-03-30T05:23:57.737Z,96.26
2019-03-30T05:24:57.726Z,97.02
2019-03-30T05:25:57.715Z,97.22
2019-03-30T05:26:57.704Z,97.69
2019-03-30T05:27:57.692Z,97.78
2019-03-30T05:28:57.684Z,98.64
2019-03-30T05:29:57.670Z,98.26
2019-03-30T05:30:57.659Z,98.07
2019-03-30T05:31:57.649Z,98.73
2019-03-30T05:33:05.647Z,98.64
2019-03-30T05:33:57.625Z,98.45
2019-03-30T05:34:57.618Z,98.83
2019-03-30T05:35:57.607Z,98.73
2019-03-30T05:36:57.591Z,99.30
2019-03-30T05:37:57.599Z,99.11
2019-03-30T05:38:57.570Z,98.64
2019-03-30T05:39:57.561Z,98.83
2019-03-30T05:40:57.548Z,98.92
2019-03-30T05:41:57.536Z,98.92
2019-03-30T05:42:57.526Z,98.26
2019-03-30T05:43:57.519Z,98.16
2019-03-30T05:44:57.936Z,97.69
2019-03-30T05:45:57.504Z,97.97
2019-03-30T05:46:57.487Z,98.26
2019-03-30T05:47:57.472Z,98.16
2019-03-30T05:48:57.466Z,98.07
2019-03-30T05:49:57.448Z,97.88
2019-03-30T05:50:57.440Z,97.78
2019-03-30T05:51:57.444Z,98.16
2019-03-30T05:52:57.415Z,98.54
2019-03-30T05:53:57.402Z,98.26
2019-03-30T05:54:57.390Z,98.73
2019-03-30T05:55:57.379Z,99.07
2019-03-30T05:56:57.368Z,98.26
2019-03-30T05:57:57.357Z,98.92
2019-03-30T05:58:57.345Z,98.07
2019-03-30T05:59:57.343Z,98.16
2019-03-30T06:00:57.323Z,98.35
2019-03-30T06:01:57.313Z,98.31
2019-03-30T06:02:57.302Z,98.50
2019-03-30T06:03:57.290Z,97.83
2019-03-30T06:04:58.667Z,98.69
2019-03-30T06:05:57.352Z,98.02
2019-03-30T06:06:57.258Z,97.83
2019-03-30T06:07:57.247Z,97.92
2019-03-30T06:08:57.236Z,98.12
2019-03-30T06:09:57.225Z,97.83
2019-03-30T06:10:57.214Z,97.83
2019-03-30T06:11:57.203Z,97.92
2019-03-30T06:12:57.192Z,97.64
2019-03-30T06:13:57.183Z,97.07
2019-03-30T06:14:57.171Z,97.27
2019-03-30T06:15:57.160Z,97.36
2019-03-30T06:16:57.149Z,97.45
2019-03-30T06:17:57.138Z,96.88
2019-03-30T06:18:57.128Z,96.41
2019-03-30T06:19:57.116Z,94.84
2019-03-30T06:20:57.106Z,93.04
2019-03-30T06:21:57.095Z,90.42
2019-03-30T06:22:57.084Z,88.04
2019-03-30T06:23:57.073Z,86.18
2019-03-30T06:24:57.062Z,86.28
2019-03-30T06:25:57.054Z,85.33
2019-03-30T06:26:57.042Z,84.66
2019-03-30T06:27:57.033Z,83.33
2019-03-30T06:28:57.021Z,82.70
2019-03-30T06:29:57.010Z,82.70
2019-03-30T06:30:57.002Z,81.37
2019-03-30T06:31:56.989Z,81.56
2019-03-30T06:32:56.978Z,82.14
2019-03-30T06:33:56.968Z,81.66
2019-03-30T06:34:56.958Z,80.61
2019-03-30T06:35:56.947Z,80.13
2019-03-30T06:36:56.936Z,80.23
2019-03-30T06:37:56.929Z,79.32
2019-03-30T06:38:56.916Z,78.85
2019-03-30T06:39:56.906Z,78.94
2019-03-30T06:40:56.895Z,78.08
2019-03-30T06:41:56.886Z,77.13
2019-03-30T06:42:56.876Z,77.42
2019-03-30T06:43:56.865Z,77.64
2019-03-30T06:44:56.859Z,76.50
2019-03-30T06:45:56.845Z,76.59
2019-03-30T06:46:56.836Z,77.17
2019-03-30T06:47:56.826Z,76.79
2019-03-30T06:48:56.817Z,76.50
2019-03-30T06:49:56.815Z,76.59
2019-03-30T06:50:56.797Z,76.12
2019-03-30T06:51:56.789Z,75.55
2019-03-30T06:52:58.615Z,75.36
2019-03-30T06:53:56.768Z,74.98
2019-03-30T06:54:56.758Z,76.03
2019-03-30T06:55:56.748Z,76.82
2019-03-30T06:56:56.740Z,76.73
2019-03-30T06:57:56.730Z,75.59
2019-03-30T06:58:56.720Z,75.59
2019-03-30T06:59:56.711Z,75.01
2019-03-30T07:00:56.702Z,75.01
2019-03-30T07:01:56.756Z,74.92
2019-03-30T07:02:56.684Z,74.16
2019-03-30T07:03:56.675Z,72.63
2019-03-30T07:04:56.668Z,73.33
2019-03-30T07:05:56.657Z,73.52
2019-03-30T07:06:56.647Z,72.48
2019-03-30T07:07:56.639Z,72.28
2019-03-30T07:08:56.629Z,71.81
2019-03-30T07:09:56.621Z,72.48
2019-03-30T07:10:56.611Z,71.52
2019-03-30T07:11:56.603Z,70.98
2019-03-30T07:12:56.596Z,72.03
2019-03-30T07:13:56.592Z,70.13
2019-03-30T07:14:56.577Z,69.65
2019-03-30T07:15:56.568Z,69.46
2019-03-30T07:16:56.622Z,69.56
2019-03-30T07:17:56.549Z,69.31
2019-03-30T07:18:56.544Z,69.02
2019-03-30T07:19:56.532Z,68.73
2019-03-30T07:20:56.524Z,67.49
2019-03-30T07:21:56.516Z,66.63
2019-03-30T07:23:10.775Z,67.01
2019-03-30T07:23:56.498Z,65.77
2019-03-30T07:24:56.491Z,65.30
2019-03-30T07:25:56.482Z,65.61
2019-03-30T07:26:56.473Z,65.52
2019-03-30T07:27:56.464Z,66.00
2019-03-30T07:28:56.457Z,65.80
2019-03-30T07:29:56.453Z,65.33
2019-03-30T07:30:56.440Z,65.52
2019-03-30T07:31:56.434Z,64.75
2019-03-30T07:32:56.423Z,64.94
2019-03-30T07:33:56.415Z,64.56
2019-03-30T07:34:56.408Z,64.85
2019-03-30T07:35:56.397Z,64.69
2019-03-30T07:36:56.389Z,65.07
2019-03-30T07:37:56.382Z,63.45
2019-03-30T07:38:56.375Z,62.97
2019-03-30T07:39:56.368Z,63.26
2019-03-30T07:40:56.359Z,62.30
2019-03-30T07:41:56.353Z,62.30
2019-03-30T07:42:56.347Z,62.87
2019-03-30T07:43:56.346Z,62.40
2019-03-30T07:44:56.333Z,62.40
2019-03-30T07:45:56.328Z,62.49
2019-03-30T07:46:56.322Z,62.49
2019-03-30T07:47:56.316Z,62.90
2019-03-30T07:48:56.331Z,62.14
2019-03-30T07:49:56.309Z,62.52
2019-03-30T07:50:56.303Z,62.33
2019-03-30T07:51:56.299Z,61.41
2019-03-30T07:52:56.295Z,61.69
2019-03-30T07:53:56.294Z,60.74
2019-03-30T07:54:56.289Z,60.64
2019-03-30T07:56:07.780Z,60.16
2019-03-30T07:57:05.337Z,60.74
2019-03-30T07:57:56.336Z,60.55
2019-03-30T07:58:56.279Z,59.97
2019-03-30T07:59:56.274Z,60.19
2019-03-30T08:00:56.272Z,59.81
2019-03-30T08:01:56.270Z,59.23
2019-03-30T08:02:56.268Z,58.37
2019-03-30T08:03:56.266Z,58.28
2019-03-30T08:04:56.267Z,57.90
2019-03-30T08:05:56.264Z,58.09
2019-03-30T08:06:56.261Z,57.99
2019-03-30T08:07:56.259Z,58.02
2019-03-30T08:08:56.258Z,57.64
2019-03-30T08:09:56.259Z,57.35
2019-03-30T08:10:56.256Z,56.97
2019-03-30T08:11:56.254Z,57.16
2019-03-30T08:12:56.253Z,57.06
2019-03-30T08:13:56.252Z,57.06
2019-03-30T08:14:56.255Z,56.42
2019-03-30T08:15:56.252Z,56.32
2019-03-30T08:16:56.251Z,56.13
2019-03-30T08:17:56.251Z,56.23
2019-03-30T08:18:56.251Z,56.54
2019-03-30T08:19:56.253Z,55.21
2019-03-30T08:20:56.252Z,54.70
2019-03-30T08:21:56.251Z,54.53
2019-03-30T08:22:56.252Z,55.68
2019-03-30T08:23:56.252Z,55.49
2019-03-30T08:24:56.253Z,53.60
2019-03-30T08:25:56.254Z,53.77
2019-03-30T08:26:56.256Z,53.58
2019-03-30T08:27:56.256Z,53.70
2019-03-30T08:28:56.257Z,53.60
2019-03-30T08:29:56.259Z,52.36
2019-03-30T08:30:56.261Z,52.23
2019-03-30T08:31:56.263Z,53.16
2019-03-30T08:32:56.263Z,53.16
2019-03-30T08:33:56.264Z,53.45
2019-03-30T08:34:56.268Z,53.45
2019-03-30T08:35:56.265Z,53.55
2019-03-30T08:36:59.197Z,53.74
2019-03-30T08:37:56.273Z,53.93
2019-03-30T08:38:56.269Z,53.28
2019-03-30T08:39:56.275Z,53.67
2019-03-30T08:40:56.270Z,53.99
2019-03-30T08:41:56.271Z,52.36
2019-03-30T08:42:56.318Z,52.36
2019-03-30T08:43:56.281Z,52.55
2019-03-30T08:44:56.275Z,52.16
2019-03-30T08:45:56.276Z,52.45
2019-03-30T08:46:56.277Z,51.49
2019-03-30T08:47:56.278Z,51.68
2019-03-30T08:48:56.280Z,51.20
2019-03-30T08:49:56.281Z,50.56
2019-03-30T08:50:56.284Z,51.61
2019-03-30T08:51:56.285Z,50.75
2019-03-30T08:52:56.287Z,49.88
2019-03-30T08:53:56.295Z,49.69
2019-03-30T08:54:56.294Z,49.60
2019-03-30T08:55:56.294Z,48.93
2019-03-30T08:56:56.296Z,49.50
2019-03-30T08:57:56.302Z,49.88
2019-03-30T08:58:56.302Z,50.65
2019-03-30T08:59:56.303Z,50.68
2019-03-30T09:00:56.307Z,50.99
2019-03-30T09:01:56.311Z,49.10
2019-03-30T09:02:56.316Z,47.82
2019-03-30T09:03:56.319Z,47.44
2019-03-30T09:04:56.325Z,48.09
2019-03-30T09:05:56.326Z,48.28
2019-03-30T09:06:56.335Z,48.07
2019-03-30T09:07:56.331Z,48.85
2019-03-30T09:08:56.334Z,48.85
2019-03-30T09:09:56.340Z,48.95
2019-03-30T09:10:56.342Z,48.57
2019-03-30T09:11:56.345Z,48.79
2019-03-30T09:12:56.349Z,47.92
2019-03-30T09:13:56.353Z,47.63
2019-03-30T09:14:56.357Z,48.71
2019-03-30T09:15:56.361Z,47.94
2019-03-30T09:16:56.368Z,47.36
2019-03-30T09:17:56.370Z,46.69
2019-03-30T09:18:56.376Z,46.67
2019-03-30T09:19:56.379Z,46.38
2019-03-30T09:20:56.386Z,46.50
2019-03-30T09:21:56.388Z,46.09
2019-03-30T09:22:56.393Z,46.77
2019-03-30T09:24:08.934Z,47.25
2019-03-30T09:24:56.401Z,47.34
2019-03-30T09:25:56.406Z,46.59
2019-03-30T09:26:56.472Z,46.31
2019-03-30T09:27:56.415Z,46.62
2019-03-30T09:28:56.420Z,46.04
2019-03-30T09:29:56.425Z,45.37
2019-03-30T09:30:56.431Z,46.04
2019-03-30T09:31:56.569Z,45.47
2019-03-30T09:32:56.441Z,44.60
2019-03-30T09:33:56.446Z,44.89
2019-03-30T09:34:56.452Z,44.60
2019-03-30T09:35:56.457Z,44.79
2019-03-30T09:36:56.548Z,44.79
2019-03-30T09:37:56.468Z,45.28
2019-03-30T09:38:56.476Z,44.91
2019-03-30T09:39:56.536Z,44.24
2019-03-30T09:40:56.485Z,43.40
2019-03-30T09:41:56.492Z,42.60
2019-03-30T09:42:56.498Z,43.37
2019-03-30T09:43:56.506Z,42.32
2019-03-30T09:44:56.509Z,42.77
2019-03-30T09:45:56.516Z,43.07
2019-03-30T09:46:56.522Z,43.16
2019-03-30T09:47:56.528Z,43.43
2019-03-30T09:48:56.534Z,44.08
2019-03-30T09:49:56.538Z,44.87
2019-03-30T09:50:56.551Z,45.35
2019-03-30T09:51:56.552Z,44.60
2019-03-30T09:52:56.561Z,42.77
2019-03-30T09:53:56.560Z,42.68
2019-03-30T09:54:56.565Z,44.12
2019-03-30T09:55:56.571Z,43.93
2019-03-30T09:56:56.576Z,43.95
2019-03-30T09:57:56.581Z,43.37
2019-03-30T09:58:56.590Z,42.14
2019-03-30T09:59:56.593Z,41.28
2019-03-30T10:00:56.599Z,40.70
2019-03-30T10:01:56.605Z,40.68
2019-03-30T10:02:56.612Z,41.38
2019-03-30T10:03:56.628Z,41.55
2019-03-30T10:04:56.624Z,41.26
2019-03-30T10:05:56.629Z,41.35
2019-03-30T10:06:56.646Z,41.16
2019-03-30T10:07:56.641Z,41.35
2019-03-30T10:08:56.647Z,41.62
2019-03-30T10:09:56.653Z,41.64
2019-03-30T10:10:56.660Z,41.06
2019-03-30T10:11:56.665Z,41.64
2019-03-30T10:12:56.671Z,41.86
2019-03-30T10:13:56.677Z,40.31
2019-03-30T10:14:56.683Z,40.12
2019-03-30T10:15:56.689Z,39.93
2019-03-30T10:16:56.703Z,40.22
2019-03-30T10:17:56.702Z,39.93
2019-03-30T10:18:56.712Z,39.64
2019-03-30T10:20:04.170Z,39.72
2019-03-30T10:20:56.721Z,39.12
2019-03-30T10:21:56.731Z,39.79
2019-03-30T10:22:56.735Z,40.35
2019-03-30T10:23:56.738Z,41.99
2019-03-30T10:24:58.407Z,41.05
2019-03-30T10:25:56.749Z,40.68
2019-03-30T10:26:56.757Z,40.20
2019-03-30T10:27:56.761Z,39.14
2019-03-30T10:28:56.765Z,39.91
2019-03-30T10:29:56.772Z,40.30
2019-03-30T10:30:56.778Z,40.39
2019-03-30T10:31:59.762Z,39.91
2019-03-30T10:32:56.790Z,39.93
2019-03-30T10:33:56.797Z,39.66
2019-03-30T10:34:56.801Z,39.56
2019-03-30T10:35:56.806Z,38.79
2019-03-30T10:36:56.812Z,38.91
2019-03-30T10:37:56.869Z,39.54
2019-03-30T10:38:56.826Z,39.83
2019-03-30T10:39:56.833Z,40.72
2019-03-30T10:40:56.838Z,40.34
2019-03-30T10:41:56.845Z,40.53
2019-03-30T10:42:56.851Z,38.78
2019-03-30T10:43:56.857Z,39.74
2019-03-30T10:44:56.863Z,39.54
2019-03-30T10:45:56.871Z,40.01
2019-03-30T10:46:56.877Z,40.58
2019-03-30T10:47:56.882Z,40.31
2019-03-30T10:48:56.888Z,39.54
2019-03-30T10:49:56.895Z,38.29
2019-03-30T10:50:56.903Z,39.74
2019-03-30T10:51:56.905Z,39.16
2019-03-30T10:52:56.914Z,39.93
2019-03-30T10:53:56.922Z,39.83
2019-03-30T10:54:56.924Z,40.41
2019-03-30T10:55:56.929Z,40.41
2019-03-30T10:56:56.937Z,41.01
2019-03-30T10:57:58.541Z,40.24
2019-03-30T10:58:56.948Z,39.59
2019-03-30T10:59:56.955Z,40.16
2019-03-30T11:00:56.962Z,38.99
2019-03-30T11:01:56.966Z,39.68
2019-03-30T11:02:56.973Z,38.89
2019-03-30T11:03:56.978Z,38.41
2019-03-30T11:04:57.063Z,40.53
2019-03-30T11:05:56.991Z,39.09
2019-03-30T11:06:57.000Z,39.93
2019-03-30T11:07:57.004Z,40.05
2019-03-30T11:08:57.010Z,40.05
2019-03-30T11:09:57.023Z,40.31
2019-03-30T11:10:57.024Z,39.64
2019-03-30T11:11:57.028Z,40.22
2019-03-30T11:12:57.035Z,41.38
2019-03-30T11:13:57.040Z,40.70
2019-03-30T11:14:57.049Z,39.18
2019-03-30T11:15:57.053Z,40.05
2019-03-30T11:16:57.060Z,39.78
2019-03-30T11:17:57.064Z,38.93
2019-03-30T11:18:57.075Z,37.96
2019-03-30T11:19:57.077Z,37.58
2019-03-30T11:20:57.083Z,37.37
2019-03-30T11:21:57.090Z,38.54
2019-03-30T11:22:57.098Z,37.39
2019-03-30T11:23:57.102Z,38.93
2019-03-30T11:25:07.218Z,38.56
2019-03-30T11:25:57.118Z,36.35
2019-03-30T11:26:57.122Z,36.81
2019-03-30T11:27:57.129Z,37.48
2019-03-30T11:28:57.135Z,37.77
2019-03-30T11:29:57.146Z,38.95
2019-03-30T11:30:57.149Z,38.95
2019-03-30T11:31:57.156Z,37.52
2019-03-30T11:32:57.162Z,37.31
2019-03-30T11:33:57.169Z,37.01
2019-03-30T11:34:57.177Z,37.95
2019-03-30T11:35:57.183Z,38.43
2019-03-30T11:36:57.190Z,38.33
2019-03-30T11:37:57.196Z,38.53
2019-03-30T11:38:57.275Z,39.01
2019-03-30T11:39:57.207Z,39.49
2019-03-30T11:40:57.215Z,39.09
2019-03-30T11:41:57.219Z,40.26
2019-03-30T11:42:57.226Z,39.79
2019-03-30T11:43:57.233Z,39.14
2019-03-30T11:44:57.238Z,37.79
2019-03-30T11:45:57.246Z,36.83
2019-03-30T11:46:57.248Z,37.39
2019-03-30T11:47:57.254Z,36.61
2019-03-30T11:48:57.261Z,36.61
2019-03-30T11:49:57.278Z,36.43
2019-03-30T11:50:57.273Z,36.71
2019-03-30T11:51:57.277Z,37.79
2019-03-30T11:52:57.283Z,36.63
2019-03-30T11:53:57.289Z,36.83
2019-03-30T11:54:57.297Z,37.48
2019-03-30T11:55:57.300Z,37.87
2019-03-30T11:56:57.306Z,37.60
2019-03-30T11:57:57.320Z,37.60
2019-03-30T11:58:57.318Z,37.60
2019-03-30T11:59:57.323Z,37.70
2019-03-30T12:00:57.329Z,37.19
2019-03-30T12:01:57.335Z,38.45
2019-03-30T12:02:57.341Z,38.93
2019-03-30T12:03:57.345Z,38.46
2019-03-30T12:04:57.352Z,38.37
2019-03-30T12:05:57.356Z,37.68
2019-03-30T12:06:57.363Z,37.87
2019-03-30T12:07:57.366Z,37.77
2019-03-30T12:08:57.371Z,37.60
2019-03-30T12:09:57.377Z,37.98
2019-03-30T12:10:57.382Z,37.21
2019-03-30T12:11:57.386Z,36.73
2019-03-30T12:12:57.392Z,36.35
2019-03-30T12:13:57.404Z,37.60
2019-03-30T12:14:57.402Z,37.41
2019-03-30T12:15:57.406Z,37.41
2019-03-30T12:16:57.411Z,37.79
2019-03-30T12:17:57.416Z,37.52
2019-03-30T12:18:57.462Z,36.85
2019-03-30T12:19:57.434Z,36.46
2019-03-30T12:20:57.434Z,36.63
2019-03-30T12:21:57.444Z,37.52
2019-03-30T12:22:57.442Z,37.52
2019-03-30T12:23:57.449Z,36.48
2019-03-30T12:24:57.451Z,35.80
2019-03-30T12:25:57.455Z,36.40
2019-03-30T12:26:57.461Z,34.55
2019-03-30T12:27:57.467Z,35.53
2019-03-30T12:28:57.469Z,34.74
2019-03-30T12:29:57.472Z,34.26
2019-03-30T12:30:57.485Z,34.74
2019-03-30T12:31:57.479Z,34.64
2019-03-30T12:32:57.494Z,35.63
2019-03-30T12:33:57.488Z,35.53
2019-03-30T12:34:57.492Z,34.86
2019-03-30T12:35:57.500Z,34.95
2019-03-30T12:36:57.502Z,34.74
2019-03-30T12:37:57.518Z,34.95
2019-03-30T12:38:57.508Z,35.36
2019-03-30T12:39:58.337Z,35.55
2019-03-30T12:40:57.513Z,34.56
2019-03-30T12:41:57.516Z,35.05
2019-03-30T12:42:57.520Z,35.34
2019-03-30T12:43:57.523Z,34.39
2019-03-30T12:44:57.528Z,34.68
2019-03-30T12:45:57.528Z,35.47
2019-03-30T12:46:57.533Z,33.62
2019-03-30T12:47:57.612Z,34.00
2019-03-30T12:48:57.592Z,33.80
2019-03-30T12:49:57.542Z,33.97
2019-03-30T12:50:57.545Z,35.32
2019-03-30T12:51:57.554Z,35.13